Time;durP1;ratioP1;P1;durP2;ratioP2;P2;SDS_P1;SDS_P2;PMS_P1;PMS_P2;Temp;Humidity;BMP_temperature;BMP_pressure;BME280_temperature;BME280_humidity;BME280_pressure;Samples;Min_cycle;Max_cycle;Signal;HPM_P1;HPM_P2
2021/03/22 00:01:43;;;;;;;0.40;0.40;;;3.30;99.90;;;;;;5015940;28;20026;-78
2021/03/22 00:04:09;;;;;;;3.38;1.38;;;3.30;99.90;;;;;;5022694;28;20104;-77
2021/03/22 00:06:35;;;;;;;1.90;1.47;;;3.30;99.90;;;;;;5028207;28;20424;-77
2021/03/22 00:09:00;;;;;;;11.52;1.27;;;3.20;99.90;;;;;;5015170;28;20593;-77
2021/03/22 00:11:26;;;;;;;3.33;1.80;;;3.30;99.90;;;;;;5011513;28;20029;-77
2021/03/22 00:13:52;;;;;;;0.57;0.57;;;3.30;99.90;;;;;;5004190;28;20319;-77
2021/03/22 00:16:18;;;;;;;3.70;1.27;;;3.30;99.90;;;;;;5027731;28;20068;-79
2021/03/22 00:18:45;;;;;;;17.77;1.33;;;3.20;99.90;;;;;;5014013;28;20036;-77
2021/03/22 00:21:12;;;;;;;2.83;2.38;;;3.20;99.90;;;;;;5016476;28;20032;-76
2021/03/22 00:23:38;;;;;;;1.95;1.65;;;3.00;99.90;;;;;;5012022;28;20064;-76
2021/03/22 00:26:05;;;;;;;5.60;1.47;;;2.90;99.90;;;;;;5031800;28;20057;-77
2021/03/22 00:28:38;;;;;;;7.03;2.72;;;2.90;99.90;;;;;;5029811;28;20403;-77
2021/03/22 00:31:08;;;;;;;1.52;1.02;;;2.90;99.90;;;;;;5014642;28;20121;-77
2021/03/22 00:33:34;;;;;;;1.20;1.05;;;2.80;99.90;;;;;;5025899;28;20033;-77
2021/03/22 00:36:00;;;;;;;14.57;1.80;;;2.90;99.90;;;;;;5032993;28;20026;-76
2021/03/22 00:38:26;;;;;;;5.33;1.70;;;2.90;99.90;;;;;;5008238;28;20029;-76
2021/03/22 00:40:54;;;;;;;2.70;1.87;;;2.90;99.90;;;;;;5008794;28;20355;-77
2021/03/22 00:43:20;;;;;;;1.17;1.10;;;3.00;99.90;;;;;;5016102;28;20025;-75
2021/03/22 00:45:46;;;;;;;4.40;1.37;;;3.10;99.90;;;;;;5033173;28;20036;-77
2021/03/22 00:48:12;;;;;;;7.30;1.33;;;3.10;99.90;;;;;;5027703;28;20025;-76
2021/03/22 00:50:40;;;;;;;1.03;0.77;;;3.20;99.90;;;;;;5032913;28;20083;-77
2021/03/22 00:53:08;;;;;;;0.93;0.93;;;3.10;99.90;;;;;;5006603;28;20638;-79
2021/03/22 00:55:34;;;;;;;5.35;2.38;;;3.10;99.90;;;;;;5015063;28;20037;-76
2021/03/22 00:58:00;;;;;;;3.80;1.63;;;3.20;99.90;;;;;;5007915;28;20515;-78
2021/03/22 01:00:33;;;;;;;31.58;2.15;;;3.10;99.90;;;;;;5036988;28;20116;-78
2021/03/22 01:02:59;;;;;;;9.70;1.02;;;3.10;99.90;;;;;;5031549;28;20500;-77
2021/03/22 01:05:25;;;;;;;1.63;1.00;;;3.20;99.90;;;;;;5036430;28;20112;-77
2021/03/22 01:07:51;;;;;;;4.88;1.33;;;3.10;99.90;;;;;;5019550;28;20437;-77
2021/03/22 01:10:36;;;;;;;2.38;2.17;;;3.10;99.90;;;;;;5009069;28;20459;-77
2021/03/22 01:13:06;;;;;;;1.83;1.38;;;3.00;99.90;;;;;;5037933;28;20117;-77
2021/03/22 01:15:32;;;;;;;2.10;1.48;;;2.90;99.90;;;;;;5027156;28;20030;-78
2021/03/22 01:17:58;;;;;;;4.68;1.88;;;2.80;99.90;;;;;;5019516;28;20061;-76
2021/03/22 01:20:34;;;;;;;6.43;2.93;;;2.80;99.90;;;;;;5036469;28;20068;-77
2021/03/22 01:23:00;;;;;;;1.85;1.75;;;2.70;99.90;;;;;;5018005;28;20439;-77
2021/03/22 01:25:25;;;;;;;0.40;0.40;;;2.70;99.90;;;;;;5006047;28;20038;-76
2021/03/22 01:27:51;;;;;;;2.17;1.87;;;2.70;99.90;;;;;;5027536;28;20040;-77
2021/03/22 01:30:21;;;;;;;2.87;1.53;;;2.70;99.90;;;;;;5016520;28;20042;-77
2021/03/22 01:32:47;;;;;;;0.85;0.85;;;2.70;99.90;;;;;;5013490;28;20420;-77
2021/03/22 01:35:13;;;;;;;5.73;1.43;;;2.80;99.90;;;;;;5019378;28;20029;-79
2021/03/22 01:37:39;;;;;;;8.07;1.05;;;2.80;99.90;;;;;;5014994;28;20065;-77
2021/03/22 01:40:24;;;;;;;13.23;2.27;;;2.80;99.90;;;;;;5036681;28;20061;-77
2021/03/22 01:43:24;;;;;;;2.05;0.93;;;2.80;99.90;;;;;;5032409;28;20439;-77
2021/03/22 01:45:50;;;;;;;1.00;0.93;;;2.90;99.90;;;;;;5017178;28;20026;-77
2021/03/22 01:48:16;;;;;;;2.87;2.57;;;3.10;99.90;;;;;;5019192;28;20309;-76
2021/03/22 01:50:42;;;;;;;3.55;2.30;;;3.20;99.90;;;;;;5016009;28;20026;-77
2021/03/22 01:53:09;;;;;;;3.13;0.93;;;3.30;99.90;;;;;;5024931;28;20320;-76
2021/03/22 01:55:34;;;;;;;;;;;3.30;99.90;;;;;;5036209;28;20129;-76
2021/03/22 01:58:00;;;;;;;1.37;1.27;;;3.40;99.90;;;;;;5032915;28;19992;-77
2021/03/22 02:00:33;;;;;;;8.67;1.70;;;3.50;99.90;;;;;;5031721;28;20320;-77
2021/03/22 02:03:07;;;;;;;9.43;2.10;;;3.60;99.90;;;;;;5013373;28;20131;-77
2021/03/22 02:05:34;;;;;;;4.75;0.98;;;3.70;99.90;;;;;;5035220;28;20013;-75
2021/03/22 02:08:08;;;;;;;1.25;0.85;;;3.90;99.90;;;;;;5034888;28;20332;-76
2021/03/22 02:10:34;;;;;;;1.40;1.17;;;3.90;99.90;;;;;;5032619;28;20025;-76
2021/03/22 02:13:00;;;;;;;2.35;1.70;;;4.00;99.90;;;;;;5033102;28;20044;-78
2021/03/22 02:15:26;;;;;;;10.23;2.17;;;4.00;99.90;;;;;;5018075;28;20034;-77
2021/03/22 02:18:00;;;;;;;1.93;1.67;;;4.00;99.90;;;;;;5017505;28;20101;-77
2021/03/22 02:20:53;;;;;;;0.75;0.75;;;4.00;99.90;;;;;;5013345;28;20413;-77
2021/03/22 02:23:46;;;;;;;7.20;2.10;;;4.00;99.90;;;;;;5033502;28;20022;-76
2021/03/22 02:26:48;;;;;;;1.10;0.80;;;4.10;99.90;;;;;;5012130;28;20117;-77
2021/03/22 02:29:50;;;;;;;9.32;2.45;;;4.20;99.90;;;;;;5007982;28;20025;-77
2021/03/22 02:32:32;;;;;;;1.15;0.45;;;4.20;99.90;;;;;;5030668;28;20034;-76
2021/03/22 02:35:09;;;;;;;5.25;1.50;;;4.20;99.90;;;;;;5012833;28;20037;-76
2021/03/22 02:37:37;;;;;;;2.17;1.73;;;4.30;99.90;;;;;;5030573;28;20029;-76
2021/03/22 02:40:37;;;;;;;3.63;1.75;;;4.30;99.90;;;;;;5035177;28;20036;-78
2021/03/22 02:43:06;;;;;;;12.02;1.20;;;4.40;99.90;;;;;;5030315;28;20061;-78
2021/03/22 02:45:38;;;;;;;2.78;1.08;;;4.40;99.90;;;;;;5016676;28;20022;-77
2021/03/22 02:48:05;;;;;;;5.30;2.00;;;4.40;99.90;;;;;;5032390;28;20018;-77
2021/03/22 02:50:39;;;;;;;14.20;2.75;;;4.40;99.90;;;;;;5015009;28;20052;-76
2021/03/22 02:53:17;;;;;;;7.43;1.25;;;4.40;99.90;;;;;;5033781;28;20033;-77
2021/03/22 02:55:52;;;;;;;19.33;0.90;;;4.40;99.90;;;;;;5035416;28;20036;-76
2021/03/22 02:58:19;;;;;;;9.55;2.17;;;4.40;99.90;;;;;;5016324;28;20428;-77
2021/03/22 03:01:03;;;;;;;3.40;1.90;;;4.40;99.90;;;;;;5030243;28;20331;-77
2021/03/22 03:03:32;;;;;;;0.30;0.30;;;4.50;99.90;;;;;;5031545;28;20057;-77
2021/03/22 03:05:57;;;;;;;4.65;1.73;;;4.50;99.90;;;;;;5017225;28;20363;-77
2021/03/22 03:08:29;;;;;;;2.50;1.02;;;4.40;99.90;;;;;;5028948;28;20018;-76
2021/03/22 03:10:57;;;;;;;1.38;1.27;;;4.40;99.90;;;;;;5015207;28;20017;-77
2021/03/22 03:13:23;;;;;;;9.30;1.98;;;4.40;99.90;;;;;;5016807;28;20072;-76
2021/03/22 03:15:49;;;;;;;1.23;0.77;;;4.40;99.90;;;;;;5013791;28;20030;-76
2021/03/22 03:18:15;;;;;;;0.80;0.70;;;4.40;99.90;;;;;;5011529;28;20107;-77
2021/03/22 03:20:41;;;;;;;6.70;2.15;;;4.40;99.90;;;;;;5033143;28;20033;-77
2021/03/22 03:23:07;;;;;;;23.00;1.93;;;4.40;99.90;;;;;;5015821;28;20040;-77
2021/03/22 03:25:33;;;;;;;13.07;1.47;;;4.40;99.90;;;;;;5014715;28;20025;-76
2021/03/22 03:27:59;;;;;;;1.75;1.17;;;4.40;99.90;;;;;;5012447;28;20317;-77
2021/03/22 03:30:31;;;;;;;3.23;2.67;;;4.40;99.90;;;;;;5006059;28;20044;-76
2021/03/22 03:32:59;;;;;;;4.22;0.50;;;4.40;99.90;;;;;;5030242;28;20021;-77
2021/03/22 03:35:28;;;;;;;3.67;1.77;;;4.40;99.90;;;;;;5006551;28;20359;-78
2021/03/22 03:37:54;;;;;;;0.40;0.40;;;4.40;99.90;;;;;;5014200;28;20057;-77
2021/03/22 03:40:35;;;;;;;13.07;2.53;;;4.40;99.90;;;;;;5010698;28;20044;-78
2021/03/22 03:43:01;;;;;;;0.35;0.35;;;4.40;99.90;;;;;;5025567;28;20038;-77
2021/03/22 03:45:31;;;;;;;0.53;0.53;;;4.40;99.90;;;;;;5035015;28;20037;-77
2021/03/22 03:47:57;;;;;;;9.43;1.55;;;4.40;99.90;;;;;;5034753;28;20290;-77
2021/03/22 03:50:30;;;;;;;2.75;1.17;;;4.40;99.90;;;;;;5033582;28;20032;-77
2021/03/22 03:52:57;;;;;;;23.52;2.83;;;4.40;99.90;;;;;;5016230;28;20051;-77
2021/03/22 03:55:25;;;;;;;4.00;0.55;;;4.40;99.90;;;;;;5035155;28;20104;-77
2021/03/22 03:57:51;;;;;;;12.70;1.25;;;4.40;99.90;;;;;;5033776;28;20033;-76
2021/03/22 04:00:36;;;;;;;3.78;1.42;;;4.30;99.90;;;;;;5027639;28;20021;-77
2021/03/22 04:03:30;;;;;;;1.48;0.43;;;4.30;99.90;;;;;;5016195;28;20033;-77
2021/03/22 04:06:08;;;;;;;1.25;0.70;;;4.30;99.90;;;;;;5030543;28;20060;-78
2021/03/22 04:08:38;;;;;;;2.83;1.00;;;4.20;99.90;;;;;;5012102;28;20340;-77
2021/03/22 04:11:07;;;;;;;1.00;0.77;;;4.10;99.90;;;;;;5029339;28;20029;-77
2021/03/22 04:13:33;;;;;;;11.65;1.40;;;4.10;99.90;;;;;;5031254;28;20080;-77
2021/03/22 04:15:59;;;;;;;3.27;2.07;;;4.10;99.90;;;;;;5016486;28;20492;-78
2021/03/22 04:18:25;;;;;;;8.00;2.30;;;4.00;99.90;;;;;;5012711;28;20044;-77
2021/03/22 04:20:51;;;;;;;9.33;0.87;;;4.00;99.90;;;;;;5015022;28;20037;-77
2021/03/22 04:23:17;;;;;;;5.73;1.87;;;4.00;99.90;;;;;;5031228;28;20428;-78
2021/03/22 04:25:43;;;;;;;0.67;0.67;;;3.90;99.90;;;;;;5013201;28;20022;-78
2021/03/22 04:28:09;;;;;;;2.15;0.98;;;4.00;99.90;;;;;;5034184;28;20033;-76
2021/03/22 04:30:34;;;;;;;12.73;0.47;;;3.90;99.90;;;;;;5032950;28;20049;-78
2021/03/22 04:33:00;;;;;;;0.00;0.00;;;4.00;99.90;;;;;;5009947;28;20021;-77
2021/03/22 04:35:26;;;;;;;1.45;0.85;;;4.10;99.90;;;;;;5013936;28;20041;-77
2021/03/22 04:37:53;;;;;;;5.25;1.58;;;4.10;99.90;;;;;;5026249;28;20034;-77
2021/03/22 04:40:23;;;;;;;0.47;0.47;;;4.10;99.90;;;;;;5031574;28;20036;-78
2021/03/22 04:42:49;;;;;;;0.85;0.22;;;4.20;99.90;;;;;;5024491;28;20051;-77
2021/03/22 04:45:17;;;;;;;0.32;0.32;;;4.20;99.90;;;;;;5034078;28;20024;-77
2021/03/22 04:47:43;;;;;;;3.15;1.33;;;4.20;99.90;;;;;;5013001;28;20550;-77
2021/03/22 04:50:09;;;;;;;1.10;0.85;;;4.20;99.90;;;;;;5007660;28;20041;-76
2021/03/22 04:52:35;;;;;;;0.17;0.10;;;4.20;99.90;;;;;;5001919;28;20079;-76
2021/03/22 04:55:00;;;;;;;0.00;0.00;;;4.20;99.90;;;;;;5010690;28;20041;-77
2021/03/22 04:57:31;;;;;;;3.13;1.33;;;4.20;99.90;;;;;;5020260;28;20371;-76
2021/03/22 04:59:57;;;;;;;1.52;0.95;;;4.20;99.90;;;;;;4997559;28;20040;-77
2021/03/22 05:02:23;;;;;;;2.57;0.97;;;4.20;99.90;;;;;;5030379;28;20026;-76
2021/03/22 05:04:49;;;;;;;0.10;0.10;;;4.20;99.90;;;;;;5033068;28;20025;-77
2021/03/22 05:07:17;;;;;;;0.95;0.70;;;4.30;99.90;;;;;;5013100;28;20428;-77
2021/03/22 05:09:42;;;;;;;2.67;1.48;;;4.30;99.90;;;;;;5030776;28;20032;-78
2021/03/22 05:12:09;;;;;;;0.13;0.13;;;4.30;99.90;;;;;;5029175;28;20661;-77
2021/03/22 05:14:35;;;;;;;0.98;0.88;;;4.30;99.90;;;;;;5022392;28;20030;-76
2021/03/22 05:17:01;;;;;;;10.15;0.63;;;4.30;99.90;;;;;;5033421;28;20038;-75
2021/03/22 05:19:27;;;;;;;0.35;0.35;;;4.40;99.90;;;;;;5005218;28;20022;-76
2021/03/22 05:21:58;;;;;;;2.13;1.40;;;4.40;99.90;;;;;;5014469;28;20045;-76
2021/03/22 05:24:25;;;;;;;10.88;1.75;;;4.40;99.90;;;;;;5025935;28;20041;-78
2021/03/22 05:26:53;;;;;;;0.10;0.10;;;4.40;99.90;;;;;;5033534;28;20018;-75
2021/03/22 05:29:20;;;;;;;3.63;1.88;;;4.40;99.90;;;;;;5015449;28;20420;-76
2021/03/22 05:31:46;;;;;;;2.60;1.80;;;4.50;99.90;;;;;;5012512;28;20029;-76
2021/03/22 05:34:12;;;;;;;7.37;1.70;;;4.50;99.90;;;;;;5026973;28;20036;-77
2021/03/22 05:36:38;;;;;;;0.70;0.70;;;4.50;99.90;;;;;;5014867;28;20255;-76
2021/03/22 05:39:05;;;;;;;8.33;1.70;;;4.50;99.90;;;;;;5033202;28;20056;-77
2021/03/22 05:41:55;;;;;;;0.55;0.55;;;4.60;99.90;;;;;;5012232;28;20033;-77
2021/03/22 05:44:32;;;;;;;0.60;0.57;;;4.60;99.90;;;;;;5024368;28;20056;-78
2021/03/22 05:47:13;;;;;;;0.40;0.40;;;4.50;99.90;;;;;;5019383;28;20025;-78
2021/03/22 05:49:47;;;;;;;2.30;1.77;;;4.50;99.90;;;;;;5018914;28;20025;-77
2021/03/22 05:52:42;;;;;;;1.58;1.42;;;4.50;99.90;;;;;;5036354;28;20040;-78
2021/03/22 05:55:29;;;;;;;1.60;0.93;;;4.60;99.90;;;;;;5014191;28;20112;-79
2021/03/22 05:58:23;;;;;;;2.08;0.25;;;4.60;99.90;;;;;;5036613;28;20052;-77
2021/03/22 06:01:43;;;;;;;14.60;0.77;;;4.60;99.90;;;;;;5031369;28;20044;-77
2021/03/22 06:04:34;;;;;;;1.42;0.17;;;4.60;99.90;;;;;;4952563;28;20193;-77
2021/03/22 06:07:03;;;;;;;0.30;0.30;;;4.60;99.90;;;;;;4966879;28;20131;-79
2021/03/22 06:09:39;;;;;;;0.32;0.32;;;4.60;99.90;;;;;;4958390;28;20054;-78
2021/03/22 06:12:19;;;;;;;0.35;0.35;;;4.60;99.90;;;;;;4973722;28;20046;-77
2021/03/22 06:14:52;;;;;;;0.63;0.63;;;4.60;99.90;;;;;;4975095;28;20027;-77
2021/03/22 06:17:42;;;;;;;0.35;0.35;;;4.60;99.90;;;;;;4973971;28;20031;-77
2021/03/22 06:20:19;;;;;;;0.85;0.77;;;4.70;99.90;;;;;;4953432;29;20492;-76
2021/03/22 06:22:45;;;;;;;0.65;0.65;;;4.70;99.90;;;;;;4966444;28;20064;-77
2021/03/22 06:25:28;;;;;;;0.77;0.57;;;4.80;99.90;;;;;;4973294;28;20311;-76
2021/03/22 06:28:00;;;;;;;0.85;0.82;;;4.80;99.90;;;;;;4965762;28;20265;-77
2021/03/22 06:30:26;;;;;;;0.55;0.20;;;4.80;99.90;;;;;;4972958;28;20046;-75
2021/03/22 06:32:56;;;;;;;0.65;0.65;;;4.80;99.90;;;;;;4973716;28;20628;-76
2021/03/22 06:35:25;;;;;;;0.43;0.40;;;4.80;99.90;;;;;;4970402;28;20314;-78
2021/03/22 06:37:51;;;;;;;1.65;1.13;;;4.90;99.90;;;;;;4996673;28;20045;-76
2021/03/22 06:40:26;;;;;;;1.05;0.98;;;4.90;99.90;;;;;;5016759;28;20105;-77
2021/03/22 06:43:14;;;;;;;3.20;0.93;;;5.00;99.90;;;;;;5018109;28;20054;-76
2021/03/22 06:45:41;;;;;;;1.65;0.70;;;5.00;99.90;;;;;;5017170;28;20071;-77
2021/03/22 06:48:19;;;;;;;;;;;5.00;99.90;;;;;;5034913;28;20044;-77
2021/03/22 06:50:47;;;;;;;5.63;1.13;;;5.10;99.90;;;;;;5016639;28;20215;-77
2021/03/22 06:53:42;;;;;;;0.90;0.80;;;5.10;99.90;;;;;;5014837;28;20033;-76
2021/03/22 06:56:11;;;;;;;2.53;1.20;;;5.20;99.90;;;;;;5017235;28;20503;-77
2021/03/22 06:58:37;;;;;;;2.65;1.65;;;5.20;99.90;;;;;;5024708;28;20037;-77
2021/03/22 07:01:18;;;;;;;0.93;0.57;;;5.20;99.90;;;;;;5034462;28;20033;-77
2021/03/22 07:03:44;;;;;;;0.28;0.28;;;5.30;99.90;;;;;;5034242;28;20029;-79
2021/03/22 07:06:21;;;;;;;0.10;0.10;;;5.40;99.90;;;;;;5015327;28;20040;-77
2021/03/22 07:08:48;;;;;;;1.02;1.00;;;5.40;99.90;;;;;;5034545;28;20049;-77
2021/03/22 07:11:21;;;;;;;0.60;0.52;;;5.40;99.90;;;;;;5015473;28;20025;-76
2021/03/22 07:14:02;;;;;;;1.27;0.10;;;5.40;99.90;;;;;;5028385;28;20369;-78
2021/03/22 07:16:31;;;;;;;0.43;0.20;;;6.00;99.90;;;;;;5028948;28;20029;-77
2021/03/22 07:19:05;;;;;;;0.25;0.15;;;6.20;99.90;;;;;;5034068;28;20021;-78
2021/03/22 07:21:32;;;;;;;2.63;0.70;;;5.90;99.90;;;;;;5012853;28;20025;-76
2021/03/22 07:24:25;;;;;;;0.13;0.10;;;5.70;99.90;;;;;;5012370;28;20029;-77
2021/03/22 07:27:05;;;;;;;0.75;0.30;;;5.70;99.90;;;;;;5015477;28;20029;-76
2021/03/22 07:29:45;;;;;;;0.03;0.03;;;5.80;99.90;;;;;;5016343;28;20372;-77
2021/03/22 07:32:35;;;;;;;0.30;0.30;;;5.70;99.90;;;;;;5015599;28;20056;-78
2021/03/22 07:35:20;;;;;;;0.00;0.00;;;5.60;99.90;;;;;;5033691;28;20021;-76
2021/03/22 07:38:15;;;;;;;0.75;0.55;;;5.50;99.90;;;;;;5011529;28;20431;-76
2021/03/22 07:40:56;;;;;;;2.53;0.65;;;5.50;99.90;;;;;;4951522;28;20039;-78
2021/03/22 07:43:40;;;;;;;1.20;0.68;;;5.60;99.90;;;;;;5014881;28;20064;-76
2021/03/22 07:46:34;;;;;;;0.90;0.55;;;5.80;99.90;;;;;;5015597;28;20103;-78
2021/03/22 07:49:32;;;;;;;5.78;0.20;;;6.10;99.90;;;;;;5031274;28;20017;-77
2021/03/22 07:52:10;;;;;;;0.17;0.17;;;6.50;99.90;;;;;;5033835;28;20421;-78
2021/03/22 07:55:28;;;;;;;0.25;0.25;;;7.00;99.90;;;;;;5017650;28;20064;-79
2021/03/22 07:58:17;;;;;;;0.70;0.60;;;7.60;99.90;;;;;;5027294;28;20124;-78
2021/03/22 08:01:29;;;;;;;0.90;0.40;;;8.90;99.90;;;;;;5018122;28;20052;-79
2021/03/22 08:04:41;;;;;;;0.52;0.47;;;9.50;99.90;;;;;;5021787;28;20308;-76
2021/03/22 08:07:27;;;;;;;0.32;0.22;;;9.50;99.90;;;;;;5009318;28;20033;-77
2021/03/22 08:10:18;;;;;;;8.23;0.55;;;9.40;99.90;;;;;;5021878;28;20428;-76
2021/03/22 08:13:02;;;;;;;0.25;0.25;;;9.60;99.90;;;;;;5032100;28;20033;-77
2021/03/22 08:15:50;;;;;;;0.38;0.38;;;9.40;99.90;;;;;;5029541;28;20094;-78
2021/03/22 08:18:42;;;;;;;0.88;0.88;;;9.20;99.90;;;;;;5025259;28;20109;-76
2021/03/22 08:21:24;;;;;;;0.22;0.22;;;8.50;99.90;;;;;;5020710;28;20045;-76
2021/03/22 08:24:11;;;;;;;0.13;0.13;;;8.00;99.90;;;;;;5027705;28;20029;-77
2021/03/22 08:26:57;;;;;;;14.95;1.65;;;7.80;99.90;;;;;;5005371;28;20056;-76
2021/03/22 08:30:04;;;;;;;0.20;0.20;;;7.60;99.90;;;;;;5014958;28;20030;-79
2021/03/22 08:32:49;;;;;;;2.30;0.10;;;8.10;99.90;;;;;;5011027;28;20815;-78
2021/03/22 08:35:42;;;;;;;0.00;0.00;;;8.00;99.90;;;;;;5014998;28;20179;-77
2021/03/22 08:38:15;;;;;;;0.75;0.75;;;7.70;99.90;;;;;;5028091;28;20116;-77
2021/03/22 08:40:52;;;;;;;0.13;0.13;;;7.50;99.90;;;;;;5007065;28;20424;-75
2021/03/22 08:43:26;;;;;;;;;;;7.30;99.90;;;;;;5029831;28;20018;-77
2021/03/22 08:46:07;;;;;;;0.00;0.00;;;7.20;99.90;;;;;;5012922;28;19905;-76
2021/03/22 08:48:33;;;;;;;0.10;0.03;;;7.10;99.90;;;;;;5010113;28;20030;-78
2021/03/22 08:51:12;;;;;;;3.67;0.57;;;7.10;99.90;;;;;;5024459;28;20036;-76
2021/03/22 08:53:39;;;;;;;0.75;0.75;;;7.00;99.90;;;;;;5009625;28;20419;-77
2021/03/22 08:56:24;;;;;;;0.40;0.08;;;6.80;99.90;;;;;;5028692;28;20032;-76
2021/03/22 08:58:53;;;;;;;0.43;0.35;;;6.70;99.90;;;;;;5002854;28;20037;-79
2021/03/22 09:01:34;;;;;;;0.00;0.00;;;6.60;99.90;;;;;;5030920;28;20021;-77
2021/03/22 09:04:30;;;;;;;0.05;0.05;;;6.60;99.90;;;;;;5016669;28;20033;-77
2021/03/22 09:07:11;;;;;;;0.47;0.47;;;6.60;99.90;;;;;;5011073;28;20095;-75
2021/03/22 09:09:46;;;;;;;0.38;0.32;;;6.60;99.90;;;;;;5024710;28;20388;-77
2021/03/22 09:12:40;;;;;;;0.10;0.10;;;6.70;99.90;;;;;;5031666;28;20351;-76
2021/03/22 09:15:19;;;;;;;0.28;0.28;;;6.70;99.90;;;;;;5015240;28;20733;-76
2021/03/22 09:17:47;;;;;;;2.38;0.15;;;6.60;99.90;;;;;;5030596;28;20041;-76
2021/03/22 09:20:24;;;;;;;0.10;0.10;;;6.60;99.90;;;;;;5029745;28;20429;-76
2021/03/22 09:22:58;;;;;;;2.17;0.95;;;6.70;99.90;;;;;;5013803;28;20041;-76
2021/03/22 09:25:48;;;;;;;1.95;0.60;;;6.70;99.90;;;;;;5014520;28;20036;-76
2021/03/22 09:28:30;;;;;;;0.20;0.13;;;6.80;99.90;;;;;;5029965;28;20124;-77
2021/03/22 09:31:03;;;;;;;0.90;0.73;;;6.90;99.90;;;;;;5012715;28;20046;-76
2021/03/22 09:33:55;;;;;;;0.15;0.15;;;6.90;99.90;;;;;;5015960;28;20045;-76
2021/03/22 09:36:46;;;;;;;0.20;0.20;;;7.10;99.90;;;;;;5026419;28;20033;-76
2021/03/22 09:39:18;;;;;;;0.55;0.55;;;7.10;99.90;;;;;;5021156;28;20029;-77
2021/03/22 09:42:05;;;;;;;0.70;0.55;;;7.30;99.90;;;;;;5015118;28;20041;-75
2021/03/22 09:44:56;;;;;;;0.20;0.20;;;7.40;99.90;;;;;;5007677;28;20324;-77
2021/03/22 09:47:25;;;;;;;0.10;0.10;;;7.50;99.90;;;;;;5033335;28;20029;-76
2021/03/22 09:50:05;;;;;;;0.15;0.15;;;7.80;99.90;;;;;;5036511;28;20029;-77
2021/03/22 09:52:35;;;;;;;0.10;0.10;;;8.10;99.90;;;;;;5018127;28;20075;-75
2021/03/22 09:55:21;;;;;;;0.45;0.10;;;8.40;99.90;;;;;;5005647;28;20112;-75
2021/03/22 09:57:47;;;;;;;0.63;0.30;;;8.40;99.90;;;;;;5030759;28;20041;-76
2021/03/22 10:00:18;;;;;;;0.40;0.40;;;8.50;99.90;;;;;;5010931;28;20413;-76
2021/03/22 10:02:50;;;;;;;0.47;0.47;;;8.40;99.90;;;;;;5030000;28;20029;-77
2021/03/22 10:05:22;;;;;;;0.10;0.10;;;8.10;99.90;;;;;;5036040;28;20029;-76
2021/03/22 10:08:37;;;;;;;0.28;0.28;;;8.00;99.90;;;;;;5034436;28;20017;-75
2021/03/22 10:11:37;;;;;;;0.67;0.67;;;7.80;99.90;;;;;;4918953;29;20035;-76
2021/03/22 10:14:04;;;;;;;2.78;0.50;;;7.70;99.90;;;;;;4880964;29;20049;-76
2021/03/22 10:16:35;;;;;;;1.55;0.30;;;7.80;99.90;;;;;;4896839;29;20047;-77
2021/03/22 10:19:19;;;;;;;0.30;0.20;;;7.70;99.90;;;;;;4898440;29;20103;-75
2021/03/22 10:21:52;;;;;;;0.05;0.05;;;7.70;99.90;;;;;;4894725;29;20454;-76
2021/03/22 10:24:36;;;;;;;0.25;0.25;;;7.60;99.90;;;;;;4892631;29;20076;-75
2021/03/22 10:27:02;;;;;;;0.30;0.30;;;7.50;99.90;;;;;;4895954;29;20059;-75
2021/03/22 10:29:32;;;;;;;0.38;0.30;;;7.60;99.90;;;;;;4894498;29;20071;-75
2021/03/22 10:32:14;;;;;;;0.32;0.32;;;7.70;99.90;;;;;;4896062;29;20039;-76
2021/03/22 10:34:53;;;;;;;0.25;0.25;;;7.80;99.90;;;;;;4898680;29;20034;-77
2021/03/22 10:37:21;;;;;;;0.00;0.00;;;7.70;99.90;;;;;;4882124;29;20040;-74
2021/03/22 10:39:48;;;;;;;0.25;0.20;;;7.60;99.90;;;;;;4882316;29;20048;-75
2021/03/22 10:42:40;;;;;;;0.13;0.13;;;7.70;99.90;;;;;;4894493;29;20029;-76
2021/03/22 10:45:35;;;;;;;0.52;0.43;;;7.70;99.90;;;;;;4887547;29;20033;-78
2021/03/22 10:48:19;;;;;;;0.10;0.10;;;7.70;99.90;;;;;;4973814;28;20037;-75
2021/03/22 10:50:46;;;;;;;0.25;0.25;;;7.70;99.90;;;;;;4997381;28;20037;-75
2021/03/22 10:53:15;;;;;;;0.20;0.20;;;7.70;99.90;;;;;;5031393;28;20029;-77
2021/03/22 10:55:45;;;;;;;0.50;0.28;;;7.60;99.90;;;;;;5035263;28;20112;-78
2021/03/22 10:58:35;;;;;;;0.17;0.17;;;7.50;99.90;;;;;;5032661;28;20698;-75
2021/03/22 11:01:06;;;;;;;0.20;0.20;;;7.50;99.90;;;;;;5013258;28;20056;-78
2021/03/22 11:03:34;;;;;;;1.65;0.80;;;7.50;99.90;;;;;;5008294;28;20018;-76
2021/03/22 11:06:00;;;;;;;0.00;0.00;;;7.50;99.90;;;;;;5015736;28;20040;-76
2021/03/22 11:08:30;;;;;;;0.32;0.32;;;7.50;99.90;;;;;;5033034;28;20018;-78
2021/03/22 11:11:29;;;;;;;0.57;0.28;;;7.40;99.90;;;;;;5014414;28;20049;-77
2021/03/22 11:13:58;;;;;;;0.15;0.05;;;7.30;99.90;;;;;;4937898;29;20090;-78
2021/03/22 11:16:29;;;;;;;0.52;0.43;;;7.30;99.90;;;;;;4938734;29;20047;-75
2021/03/22 11:18:57;;;;;;;0.52;0.45;;;7.30;99.90;;;;;;4950621;29;20042;-78
2021/03/22 11:21:24;;;;;;;0.93;0.60;;;7.40;99.90;;;;;;4954649;28;20038;-75
2021/03/22 11:23:53;;;;;;;0.75;0.55;;;7.40;99.90;;;;;;4937994;29;20173;-77
2021/03/22 11:26:30;;;;;;;1.65;0.28;;;7.30;99.90;;;;;;4953565;28;20031;-76
2021/03/22 11:29:19;;;;;;;0.43;0.28;;;7.40;99.90;;;;;;4951904;29;20059;-75
2021/03/22 11:31:48;;;;;;;0.10;0.10;;;7.40;99.90;;;;;;4917278;29;20051;-75
2021/03/22 11:34:25;;;;;;;0.13;0.13;;;7.30;99.90;;;;;;4934113;29;20040;-75
2021/03/22 11:37:02;;;;;;;0.20;0.20;;;7.40;99.90;;;;;;4917763;29;20154;-75
2021/03/22 11:39:31;;;;;;;0.10;0.10;;;7.40;99.90;;;;;;4935947;29;20036;-78
2021/03/22 11:41:56;;;;;;;0.30;0.30;;;7.40;99.90;;;;;;4934315;29;20328;-76
2021/03/22 11:44:35;;;;;;;0.00;0.00;;;7.50;99.90;;;;;;4934948;29;20036;-76
2021/03/22 11:47:22;;;;;;;0.98;0.40;;;7.50;99.90;;;;;;4935249;29;20082;-76
2021/03/22 11:49:50;;;;;;;0.00;0.00;;;7.50;99.90;;;;;;4985544;28;20065;-75
2021/03/22 11:52:33;;;;;;;1.27;0.68;;;7.50;99.90;;;;;;5012111;28;20036;-76
2021/03/22 11:55:07;;;;;;;0.30;0.30;;;7.60;99.90;;;;;;4993141;28;20112;-75
2021/03/22 11:57:36;;;;;;;0.10;0.10;;;7.60;99.90;;;;;;4993599;28;20022;-74
2021/03/22 12:00:21;;;;;;;0.45;0.08;;;7.70;99.90;;;;;;5014110;28;20018;-76
2021/03/22 12:02:58;;;;;;;0.08;0.08;;;7.60;99.90;;;;;;4993179;28;20033;-75
2021/03/22 12:05:30;;;;;;;0.00;0.00;;;7.60;99.90;;;;;;4996888;28;20113;-75
2021/03/22 12:07:56;;;;;;;2.13;0.68;;;7.50;99.90;;;;;;4983123;28;20395;-76
2021/03/22 12:10:28;;;;;;;0.10;0.10;;;7.50;99.90;;;;;;5009699;28;20105;-76
2021/03/22 12:13:00;;;;;;;1.00;0.57;;;7.50;99.90;;;;;;4992201;28;20103;-75
2021/03/22 12:15:26;;;;;;;0.00;0.00;;;7.50;99.90;;;;;;4992895;28;20389;-78
2021/03/22 12:18:28;;;;;;;0.20;0.15;;;7.50;99.90;;;;;;5011028;28;20022;-76
2021/03/22 12:20:54;;;;;;;0.03;0.03;;;7.60;99.90;;;;;;5011912;28;20053;-76
2021/03/22 12:23:19;;;;;;;0.10;0.10;;;7.70;99.90;;;;;;4993830;28;20087;-76
2021/03/22 12:25:45;;;;;;;0.00;0.00;;;7.80;99.90;;;;;;5011419;28;20460;-75
2021/03/22 12:28:11;;;;;;;0.32;0.22;;;7.90;99.90;;;;;;5013084;28;20452;-76
2021/03/22 12:30:37;;;;;;;0.22;0.20;;;8.00;99.90;;;;;;5003013;28;20065;-75
2021/03/22 12:33:04;;;;;;;0.17;0.13;;;8.20;99.90;;;;;;5031221;28;20104;-75
2021/03/22 12:35:34;;;;;;;0.10;0.00;;;8.40;99.90;;;;;;5032547;28;20025;-75
2021/03/22 12:38:01;;;;;;;0.15;0.15;;;8.50;99.90;;;;;;5031500;28;20025;-75
2021/03/22 12:40:26;;;;;;;;;;;8.70;99.90;;;;;;5033063;28;20105;-75
2021/03/22 12:42:54;;;;;;;0.00;0.00;;;8.60;99.90;;;;;;5030105;28;20286;-75
2021/03/22 12:45:32;;;;;;;0.30;0.30;;;8.50;99.90;;;;;;5014713;28;20041;-75
2021/03/22 12:47:58;;;;;;;6.07;0.68;;;8.40;99.90;;;;;;5008909;28;20109;-75
2021/03/22 12:50:33;;;;;;;0.13;0.13;;;8.40;99.90;;;;;;5013849;28;20025;-75
2021/03/22 12:53:00;;;;;;;0.10;0.10;;;8.30;99.90;;;;;;5031279;28;20048;-75
2021/03/22 12:55:28;;;;;;;0.20;0.20;;;8.20;99.90;;;;;;5029874;28;20485;-74
2021/03/22 12:58:00;;;;;;;0.22;0.22;;;8.10;99.90;;;;;;5029240;28;20033;-76
2021/03/22 13:00:28;;;;;;;0.10;0.10;;;8.00;99.90;;;;;;5029440;28;20083;-74
2021/03/22 13:02:54;;;;;;;0.00;0.00;;;7.90;99.90;;;;;;5023462;28;20018;-75
2021/03/22 13:05:29;;;;;;;0.90;0.88;;;7.80;99.90;;;;;;5015393;28;20071;-75
2021/03/22 13:07:55;;;;;;;0.52;0.28;;;7.80;99.90;;;;;;5033484;28;20064;-75
2021/03/22 13:10:25;;;;;;;0.03;0.03;;;7.70;99.90;;;;;;5011453;28;20065;-76
2021/03/22 13:12:50;;;;;;;0.13;0.13;;;7.70;99.90;;;;;;5032119;28;20037;-74
2021/03/22 13:15:29;;;;;;;0.17;0.10;;;7.80;99.90;;;;;;5028925;28;20478;-75
2021/03/22 13:17:55;;;;;;;0.43;0.43;;;7.70;99.90;;;;;;5032429;28;20037;-76
2021/03/22 13:20:23;;;;;;;0.13;0.13;;;7.80;99.90;;;;;;5014315;28;20207;-74
2021/03/22 13:22:49;;;;;;;0.15;0.00;;;7.80;99.90;;;;;;5032598;28;20690;-75
2021/03/22 13:25:17;;;;;;;0.40;0.33;;;7.80;99.90;;;;;;5031464;28;20116;-74
2021/03/22 13:27:44;;;;;;;0.00;0.00;;;7.70;99.90;;;;;;5022715;28;20061;-74
2021/03/22 13:30:12;;;;;;;;;;;7.80;99.90;;;;;;5031556;28;20076;-76
2021/03/22 13:32:37;;;;;;;0.00;0.00;;;7.70;99.90;;;;;;5007762;28;19940;-76
2021/03/22 13:35:04;;;;;;;0.20;0.20;;;7.60;99.90;;;;;;5030593;28;20436;-77